Time;durP1;ratioP1;P1;durP2;ratioP2;P2;SDS_P1;SDS_P2;PMS_P1;PMS_P2;Temp;Humidity;BMP_temperature;BMP_pressure;BME280_temperature;BME280_humidity;BME280_pressure;Samples;Min_cycle;Max_cycle;Signal;HPM_P1;HPM_P2
2022/08/18 00:00:44;;;;;;;44.20;32.45;;;;;;;18.48;89.83;101172.06;5061877;28;20041;-68
2022/08/18 00:03:10;;;;;;;47.40;33.40;;;;;;;18.44;90.45;101173.41;5065458;28;20381;-69
2022/08/18 00:05:36;;;;;;;47.92;34.95;;;;;;;18.46;90.09;101172.19;5077278;28;20036;-68
2022/08/18 00:08:03;;;;;;;49.92;31.60;;;;;;;18.48;90.07;101178.44;5071780;28;20464;-68
2022/08/18 00:10:29;;;;;;;41.78;30.92;;;;;;;18.51;90.58;101180.00;5067251;28;20422;-69
2022/08/18 00:12:55;;;;;;;46.22;31.42;;;;;;;18.54;90.42;101186.06;5066235;28;20032;-68
2022/08/18 00:15:20;;;;;;;45.38;31.70;;;;;;;18.56;90.34;101194.22;5066001;28;20082;-68
2022/08/18 00:17:46;;;;;;;46.10;31.45;;;;;;;18.58;90.64;101193.03;5066898;28;20503;-68
2022/08/18 00:20:20;;;;;;;49.78;34.33;;;;;;;18.61;90.60;101187.22;5066107;28;20040;-69
2022/08/18 00:22:46;;;;;;;46.15;31.42;;;;;;;18.60;91.03;101188.25;5062771;28;20033;-68
2022/08/18 00:25:14;;;;;;;50.83;32.75;;;;;;;18.62;90.64;101190.81;5048804;28;20048;-68
2022/08/18 00:27:40;;;;;;;48.05;33.25;;;;;;;18.64;90.82;101188.78;5067903;28;20044;-68
2022/08/18 00:30:12;;;;;;;47.35;32.28;;;;;;;18.64;90.47;101187.91;5073615;28;20020;-68
2022/08/18 00:32:41;;;;;;;47.42;33.47;;;;;;;18.67;91.39;101205.00;5067303;28;20697;-71
2022/08/18 00:35:17;;;;;;;46.45;33.40;;;;;;;18.68;90.40;101212.25;5079018;28;20471;-67
2022/08/18 00:37:43;;;;;;;46.60;32.97;;;;;;;18.69;90.83;101205.75;5074071;28;20032;-68
2022/08/18 00:40:12;;;;;;;48.15;32.45;;;;;;;18.70;90.38;101206.59;5066544;28;20210;-68
2022/08/18 00:42:48;;;;;;;45.80;33.03;;;;;;;18.69;90.59;101202.97;5066555;28;20036;-68
2022/08/18 00:45:19;;;;;;;51.38;33.30;;;;;;;18.70;90.45;101210.25;5065337;28;20028;-68
2022/08/18 00:47:45;;;;;;;46.13;32.95;;;;;;;18.71;90.43;101214.75;5065018;28;20068;-68
2022/08/18 00:50:15;;;;;;;47.22;33.65;;;;;;;18.70;89.98;101212.13;5065191;28;20105;-68
2022/08/18 00:52:46;;;;;;;49.58;34.65;;;;;;;18.68;90.45;101220.50;5061793;28;20036;-70
2022/08/18 00:55:11;;;;;;;46.17;33.03;;;;;;;18.65;90.85;101217.19;5064931;28;20139;-67
2022/08/18 00:57:38;;;;;;;49.22;34.05;;;;;;;18.61;90.15;101214.78;5068463;28;20107;-70
2022/08/18 01:00:11;;;;;;;42.20;31.48;;;;;;;18.60;90.04;101203.88;5087073;28;20032;-68
2022/08/18 01:02:49;;;;;;;48.05;34.25;;;;;;;18.52;90.86;101196.41;5081426;28;20047;-68
2022/08/18 01:05:26;;;;;;;45.42;31.90;;;;;;;18.50;89.60;101209.44;5065036;28;20048;-68
2022/08/18 01:07:51;;;;;;;43.38;32.63;;;;;;;18.40;89.78;101203.13;5061983;28;20036;-67
2022/08/18 01:10:20;;;;;;;49.50;32.78;;;;;;;18.36;89.64;101209.97;5065973;28;20031;-67
2022/08/18 01:12:49;;;;;;;43.50;30.27;;;;;;;18.32;89.79;101211.28;5064587;28;20055;-67
2022/08/18 01:15:18;;;;;;;45.38;28.67;;;;;;;18.25;88.94;101196.41;5066336;28;20047;-68
2022/08/18 01:23:22;;;;;;;41.42;28.42;;;;;;;18.12;89.48;101204.13;5061661;28;20088;-70
2022/08/18 01:25:59;;;;;;;42.65;29.70;;;;;;;18.10;89.71;101209.81;5066035;28;20435;-67
2022/08/18 01:28:26;;;;;;;48.33;32.03;;;;;;;18.06;90.70;101200.97;5065606;28;20415;-67
2022/08/18 01:30:57;;;;;;;48.05;32.33;;;;;;;18.02;91.02;101201.44;5063576;28;20044;-67
2022/08/18 01:33:35;;;;;;;44.20;31.10;;;;;;;17.98;90.84;101203.59;5065755;28;20535;-67
2022/08/18 01:36:08;;;;;;;48.17;32.72;;;;;;;17.96;91.30;101199.28;5065391;28;20072;-68
2022/08/18 01:38:33;;;;;;;46.95;32.67;;;;;;;17.93;91.87;101197.69;5060581;28;20033;-67
2022/08/18 01:40:59;;;;;;;47.55;32.08;;;;;;;17.88;92.07;101200.03;5064463;28;20165;-68
2022/08/18 01:43:25;;;;;;;49.88;34.25;;;;;;;17.85;92.84;101198.44;5065495;28;20086;-68
2022/08/18 01:45:50;;;;;;;38.88;29.17;;;;;;;17.85;90.13;101203.94;5064359;28;20124;-68
2022/08/18 01:48:16;;;;;;;44.05;31.63;;;;;;;17.85;91.63;101198.44;5065449;28;20051;-67
2022/08/18 01:50:44;;;;;;;49.08;32.55;;;;;;;17.84;92.62;101187.56;5064802;28;20134;-67
2022/08/18 01:53:10;;;;;;;46.60;32.42;;;;;;;17.83;91.84;101196.84;5060157;28;20623;-67
2022/08/18 01:55:38;;;;;;;44.70;31.33;;;;;;;17.80;91.33;101191.66;5066195;28;20056;-68
2022/08/18 01:58:06;;;;;;;43.33;29.23;;;;;;;17.77;91.50;101191.97;5065808;28;20036;-67
2022/08/18 02:00:32;;;;;;;44.88;30.80;;;;;;;17.74;91.50;101186.75;5064071;28;20040;-69
2022/08/18 02:03:00;;;;;;;46.30;31.40;;;;;;;17.71;91.46;101184.25;5063671;28;20390;-68
2022/08/18 02:05:36;;;;;;;46.53;32.95;;;;;;;17.68;92.60;101184.56;5064225;28;20036;-67
2022/08/18 02:08:03;;;;;;;42.20;29.70;;;;;;;17.66;91.82;101184.69;5061333;28;20443;-70
2022/08/18 02:10:29;;;;;;;42.65;30.55;;;;;;;17.63;91.90;101182.25;5065452;28;20123;-68
2022/08/18 02:12:55;;;;;;;45.50;30.65;;;;;;;17.62;92.51;101176.88;5064710;28;20029;-69
2022/08/18 02:15:21;;;;;;;43.58;30.70;;;;;;;17.59;91.96;101180.81;5073901;28;20040;-67
2022/08/18 02:17:46;;;;;;;48.08;31.27;;;;;;;17.59;92.40;101187.19;5089155;28;20028;-67
2022/08/18 02:20:14;;;;;;;44.17;32.58;;;;;;;17.56;92.76;101189.34;5074538;28;20033;-70
2022/08/18 02:22:41;;;;;;;45.65;30.77;;;;;;;17.54;92.60;101192.28;5065195;28;20040;-68
2022/08/18 02:25:07;;;;;;;43.97;29.80;;;;;;;17.54;91.66;101185.91;5069635;28;20443;-68
2022/08/18 02:27:34;;;;;;;40.95;28.83;;;;;;;17.54;91.92;101191.41;5068722;28;20040;-69
2022/08/18 02:30:00;;;;;;;48.70;29.42;;;;;;;17.55;92.22;101195.88;5069180;28;20039;-68
2022/08/18 02:32:26;;;;;;;40.00;28.73;;;;;;;17.51;91.02;101195.31;5067476;28;20033;-68
2022/08/18 02:34:52;;;;;;;40.63;28.38;;;;;;;17.52;90.95;101201.66;5067873;28;20452;-67
2022/08/18 02:37:17;;;;;;;39.35;28.33;;;;;;;17.50;91.00;101190.81;5065698;28;20229;-68
2022/08/18 02:39:42;;;;;;;38.05;27.08;;;;;;;17.47;90.98;101201.25;5056050;28;20045;-69
2022/08/18 02:42:08;;;;;;;40.40;27.98;;;;;;;17.45;90.58;101193.16;5049235;28;20533;-70
2022/08/18 02:44:34;;;;;;;39.50;27.35;;;;;;;17.44;90.83;101209.78;5069618;28;20044;-68
2022/08/18 02:47:00;;;;;;;38.58;27.15;;;;;;;17.42;90.46;101203.56;5067598;28;20353;-69
2022/08/18 02:49:26;;;;;;;36.75;26.52;;;;;;;17.39;90.23;101199.22;5066902;28;20463;-68
2022/08/18 02:51:53;;;;;;;34.33;24.88;;;;;;;17.37;90.23;101205.91;5066356;28;20059;-69
2022/08/18 02:54:21;;;;;;;41.08;26.95;;;;;;;17.37;90.33;101205.91;5067508;28;20533;-68
2022/08/18 02:56:49;;;;;;;32.63;23.48;;;;;;;17.33;89.58;101203.44;5068456;28;20036;-68
2022/08/18 02:59:23;;;;;;;37.33;24.90;;;;;;;17.26;89.71;101206.94;5066871;28;20032;-69
2022/08/18 03:01:50;;;;;;;40.50;28.67;;;;;;;17.20;91.80;101200.09;5048064;28;20056;-68
2022/08/18 03:04:20;;;;;;;39.30;25.90;;;;;;;17.13;90.76;101201.72;5051729;28;20032;-68
2022/08/18 03:06:46;;;;;;;35.78;25.70;;;;;;;17.07;90.21;101199.56;5067701;28;20062;-69
2022/08/18 03:09:16;;;;;;;36.13;25.25;;;;;;;17.04;89.68;101199.84;5064469;28;20036;-68
2022/08/18 03:11:42;;;;;;;33.45;22.83;;;;;;;17.01;89.92;101200.97;5068086;28;20071;-70
2022/08/18 03:14:07;;;;;;;35.05;25.30;;;;;;;16.99;91.61;101203.00;5067516;28;20043;-68
2022/08/18 03:16:35;;;;;;;33.90;25.50;;;;;;;16.93;91.43;101200.84;5067376;28;20036;-68
2022/08/18 03:19:01;;;;;;;33.30;23.38;;;;;;;16.91;90.55;101199.25;5064851;28;20070;-69
2022/08/18 03:21:29;;;;;;;33.53;24.63;;;;;;;16.89;90.45;101201.28;5067639;28;20370;-69
2022/08/18 03:23:55;;;;;;;27.80;21.02;;;;;;;16.87;89.56;101206.03;5059277;28;20094;-69
2022/08/18 03:26:23;;;;;;;29.75;22.02;;;;;;;16.82;89.95;101203.72;5048030;28;20340;-68
2022/08/18 03:28:51;;;;;;;28.42;20.33;;;;;;;16.77;89.38;101208.78;5047776;28;20037;-68
2022/08/18 03:31:18;;;;;;;30.42;21.70;;;;;;;16.74;89.60;101215.44;5047991;28;20048;-68
2022/08/18 03:33:45;;;;;;;27.88;20.23;;;;;;;16.70;89.24;101211.19;5059386;28;20372;-69
2022/08/18 03:36:17;;;;;;;26.90;20.67;;;;;;;16.67;89.10;101216.09;5067656;28;20083;-69
2022/08/18 03:38:45;;;;;;;28.95;20.92;;;;;;;16.65;89.09;101212.66;5063340;28;20459;-68
2022/08/18 03:41:12;;;;;;;33.40;22.10;;;;;;;16.65;89.38;101216.25;5066455;28;20036;-69
2022/08/18 03:43:38;;;;;;;30.60;20.52;;;;;;;16.65;89.65;101216.25;5068124;28;20368;-68
2022/08/18 03:46:08;;;;;;;26.10;19.17;;;;;;;16.63;89.18;101228.38;5066917;28;20045;-67
2022/08/18 03:48:35;;;;;;;26.90;18.95;;;;;;;16.60;88.94;101232.28;5048702;28;20028;-68
2022/08/18 03:51:06;;;;;;;33.20;21.90;;;;;;;16.52;89.07;101224.75;5066580;28;20410;-68
2022/08/18 03:53:33;;;;;;;36.53;21.05;;;;;;;16.44;88.12;101221.81;5062804;28;20051;-68
2022/08/18 03:55:59;;;;;;;30.38;21.90;;;;;;;16.38;89.22;101221.53;5067378;28;20040;-68
2022/08/18 03:58:26;;;;;;;26.65;19.75;;;;;;;16.36;89.02;101227.13;5067421;28;20517;-69
2022/08/18 04:00:51;;;;;;;34.65;20.05;;;;;;;16.37;89.16;101228.00;5066357;28;20186;-68
2022/08/18 04:03:17;;;;;;;28.80;20.60;;;;;;;16.35;89.02;101222.66;5067027;28;20419;-68
2022/08/18 04:05:42;;;;;;;33.10;21.00;;;;;;;16.33;88.78;101222.81;5066590;28;20041;-69
2022/08/18 04:08:07;;;;;;;33.60;20.52;;;;;;;16.33;88.95;101216.44;5062593;28;20613;-68
2022/08/18 04:10:34;;;;;;;30.63;19.75;;;;;;;16.33;89.03;101214.56;5067552;28;20024;-69
2022/08/18 04:13:04;;;;;;;28.05;19.08;;;;;;;16.29;89.56;101215.84;5080189;28;20641;-68
2022/08/18 04:15:30;;;;;;;33.42;21.63;;;;;;;16.26;89.92;101205.13;5087160;28;20066;-69
2022/08/18 04:17:59;;;;;;;36.08;21.25;;;;;;;16.31;89.63;101218.44;5070519;28;20066;-68
2022/08/18 04:20:25;;;;;;;32.17;21.77;;;;;;;16.33;90.60;101217.31;5065905;28;20081;-69
2022/08/18 04:22:50;;;;;;;28.58;20.13;;;;;;;16.36;89.51;101218.91;5062359;28;20463;-68
2022/08/18 04:25:16;;;;;;;30.23;20.17;;;;;;;16.40;89.81;101219.50;5066759;28;20079;-68
2022/08/18 04:27:42;;;;;;;32.67;22.15;;;;;;;16.44;90.23;101212.72;5047889;28;20047;-68
2022/08/18 04:30:10;;;;;;;28.05;20.30;;;;;;;16.46;90.19;101219.81;5067438;28;20060;-69
2022/08/18 04:32:35;;;;;;;29.80;19.40;;;;;;;16.48;89.75;101216.94;5067021;28;20119;-68
2022/08/18 04:35:00;;;;;;;26.48;19.33;;;;;;;16.49;89.98;101218.66;5065180;28;20555;-68
2022/08/18 04:37:26;;;;;;;37.88;24.38;;;;;;;16.51;91.32;101217.53;5063355;28;20092;-69
2022/08/18 04:39:51;;;;;;;26.98;20.75;;;;;;;16.54;90.19;101225.47;5065193;28;20048;-68
2022/08/18 04:42:16;;;;;;;31.08;19.10;;;;;;;16.56;90.58;101225.34;5066630;28;20025;-69
2022/08/18 04:44:42;;;;;;;33.30;20.02;;;;;;;16.58;90.11;101226.91;5065563;28;20085;-68
2022/08/18 04:47:08;;;;;;;28.48;19.85;;;;;;;16.59;90.14;101222.28;5066869;28;20047;-68
2022/08/18 04:49:35;;;;;;;35.03;21.15;;;;;;;16.61;91.02;101224.91;5064644;28;20025;-69
2022/08/18 04:54:44;;;;;;;37.20;22.77;;;;;;;16.66;91.32;101242.72;5060520;28;20036;-68
2022/08/18 04:57:15;;;;;;;34.65;21.48;;;;;;;16.68;90.96;101243.44;5056744;28;20796;-68
2022/08/18 04:59:43;;;;;;;39.70;26.23;;;;;;;16.73;91.16;101243.03;5065327;28;20028;-68
2022/08/18 05:02:09;;;;;;;48.58;28.52;;;;;;;16.75;91.65;101233.66;5065756;28;20397;-69
2022/08/18 05:04:37;;;;;;;50.72;30.17;;;;;;;16.80;92.53;101241.47;5064380;28;20024;-67
2022/08/18 05:07:05;;;;;;;50.28;31.80;;;;;;;16.81;93.09;101234.97;5076364;28;20043;-68
2022/08/18 05:09:31;;;;;;;47.58;31.20;;;;;;;16.84;92.43;101229.19;5064902;28;20122;-67
2022/08/18 05:11:56;;;;;;;45.53;29.42;;;;;;;16.88;91.91;101229.75;5065864;28;20554;-68
2022/08/18 05:14:22;;;;;;;44.80;28.55;;;;;;;16.91;91.91;101238.59;5065269;28;20028;-68
2022/08/18 05:16:48;;;;;;;47.17;29.88;;;;;;;16.94;91.63;101246.56;5065839;28;20131;-68
2022/08/18 05:19:14;;;;;;;45.08;29.13;;;;;;;16.94;92.52;101241.06;5064788;28;20028;-68
2022/08/18 05:21:40;;;;;;;46.08;30.00;;;;;;;16.99;92.59;101252.50;5063685;28;20040;-69
2022/08/18 05:24:08;;;;;;;49.80;31.50;;;;;;;17.04;92.29;101249.31;5062710;28;20041;-68
2022/08/18 05:26:33;;;;;;;50.08;31.27;;;;;;;17.09;92.68;101241.50;5066133;28;20123;-67
2022/08/18 05:28:59;;;;;;;47.35;31.52;;;;;;;17.14;92.40;101244.69;5064724;28;20576;-68
2022/08/18 05:31:26;;;;;;;48.53;31.15;;;;;;;17.20;91.24;101244.09;5064781;28;20059;-67
2022/08/18 05:33:54;;;;;;;48.45;29.80;;;;;;;17.29;91.55;101250.63;5064335;28;20056;-69
2022/08/18 05:36:26;;;;;;;44.97;31.40;;;;;;;17.36;91.57;101246.28;5065818;28;20024;-68
2022/08/18 05:39:00;;;;;;;53.53;32.40;;;;;;;17.40;91.42;101241.38;5061757;28;20044;-68
2022/08/18 05:41:31;;;;;;;46.83;29.52;;;;;;;17.44;91.32;101248.28;5079917;28;20032;-67
2022/08/18 05:43:57;;;;;;;39.67;28.98;;;;;;;17.47;91.28;101251.63;5084281;28;20101;-69
2022/08/18 05:46:39;;;;;;;46.83;31.17;;;;;;;17.50;91.22;101256.84;5065483;28;20754;-67
2022/08/18 05:49:04;;;;;;;42.45;29.73;;;;;;;17.53;90.46;101250.16;5063393;28;20032;-68
2022/08/18 05:51:37;;;;;;;45.92;30.85;;;;;;;17.57;90.95;101255.22;5064708;28;20032;-68
2022/08/18 05:56:51;;;;;;;46.42;29.90;;;;;;;17.71;91.12;101264.91;5065438;28;20434;-68
2022/08/18 05:59:35;;;;;;;44.95;29.05;;;;;;;17.78;90.51;101268.00;5065451;28;20107;-68
2022/08/18 06:02:16;;;;;;;42.60;28.85;;;;;;;17.84;90.76;101262.75;5064193;28;20427;-68
2022/08/18 06:05:00;;;;;;;52.38;30.25;;;;;;;17.91;90.20;101263.06;5068309;28;20044;-67
2022/08/18 06:07:33;;;;;;;43.30;28.23;;;;;;;17.97;90.76;101272.59;5078060;28;20191;-67
2022/08/18 06:09:58;;;;;;;45.35;30.58;;;;;;;17.99;90.90;101267.78;5064659;28;20040;-67
2022/08/18 06:12:32;;;;;;;42.83;29.15;;;;;;;17.99;91.13;101268.66;5062928;28;20490;-67
2022/08/18 06:15:21;;;;;;;40.60;28.55;;;;;;;18.03;90.98;101267.34;5064345;28;20056;-67
2022/08/18 06:18:07;;;;;;;42.58;28.25;;;;;;;18.10;89.65;101275.91;5063702;28;20056;-67
2022/08/18 06:20:52;;;;;;;47.30;30.35;;;;;;;18.14;90.73;101273.69;5075230;28;20032;-67
2022/08/18 06:23:55;;;;;;;40.65;28.52;;;;;;;18.24;89.72;101269.03;5065377;28;20395;-68
2022/08/18 06:26:33;;;;;;;42.35;28.50;;;;;;;18.32;89.25;101267.25;5081508;28;20097;-67
2022/08/18 06:29:28;;;;;;;59.97;30.52;;;;;;;18.37;89.43;101272.28;5085414;28;20043;-67
2022/08/18 06:32:42;;;;;;;43.05;29.55;;;;;;;18.42;88.83;101281.00;5085172;28;20570;-66
2022/08/18 06:35:20;;;;;;;43.05;28.98;;;;;;;18.46;89.88;101278.78;5046719;28;20056;-68
2022/08/18 06:41:11;;;;;;;46.20;27.90;;;;;;;18.69;88.44;101285.66;5063535;28;20032;-68
2022/08/18 06:43:39;;;;;;;39.05;27.75;;;;;;;18.75;87.52;101290.59;5064302;28;20036;-68
2022/08/18 06:46:14;;;;;;;44.55;29.80;;;;;;;18.79;88.73;101288.38;5056625;28;20473;-67
2022/08/18 06:48:55;;;;;;;44.95;29.55;;;;;;;18.90;88.63;101295.59;5061928;28;20403;-69
2022/08/18 06:51:25;;;;;;;40.05;28.48;;;;;;;18.98;88.34;101285.53;5061922;28;20549;-67
2022/08/18 06:54:26;;;;;;;40.22;28.58;;;;;;;19.22;88.00;101289.56;5057794;28;20094;-68
2022/08/18 06:56:54;;;;;;;41.30;28.35;;;;;;;19.31;86.98;101286.72;5063598;28;20040;-68
2022/08/18 06:59:24;;;;;;;41.20;27.08;;;;;;;19.39;86.95;101288.69;5064758;28;20107;-69
2022/08/18 07:02:01;;;;;;;43.22;29.75;;;;;;;19.43;86.65;101290.09;5066551;28;20044;-68
2022/08/18 07:04:31;;;;;;;41.03;27.58;;;;;;;19.52;86.18;101293.81;5066883;28;20039;-68
2022/08/18 07:06:57;;;;;;;40.28;29.27;;;;;;;19.55;85.42;101297.13;5065291;28;20044;-70
2022/08/18 07:09:24;;;;;;;40.83;28.23;;;;;;;19.60;86.04;101302.22;5065546;28;20042;-67
2022/08/18 07:11:59;;;;;;;39.60;27.92;;;;;;;19.59;86.97;101298.56;5060607;28;20491;-68
2022/08/18 07:14:25;;;;;;;41.55;29.10;;;;;;;19.57;86.53;101296.97;5057981;28;20047;-68
2022/08/18 07:17:09;;;;;;;36.35;26.25;;;;;;;19.58;85.42;101291.31;5066877;28;20123;-69
2022/08/18 07:19:35;;;;;;;35.17;25.40;;;;;;;19.62;85.04;101300.16;5067515;28;20118;-67
2022/08/18 07:22:10;;;;;;;36.72;26.27;;;;;;;19.79;85.42;101290.13;5066643;28;20032;-68
2022/08/18 07:24:53;;;;;;;35.10;25.23;;;;;;;19.86;85.94;101293.97;5064454;28;20471;-67
2022/08/18 07:27:21;;;;;;;38.70;26.02;;;;;;;19.82;83.78;101287.91;5050459;28;20116;-67
2022/08/18 07:30:24;;;;;;;35.75;25.30;;;;;;;19.92;84.39;101293.34;5067037;28;20051;-69
2022/08/18 07:33:24;;;;;;;33.95;23.98;;;;;;;20.03;85.02;101297.72;5071157;28;20054;-67
2022/08/18 07:36:02;;;;;;;38.42;23.75;;;;;;;20.16;85.23;101292.63;5073270;28;20048;-68
2022/08/18 07:38:33;;;;;;;33.55;23.77;;;;;;;20.33;84.64;101297.25;5070560;28;20028;-68
2022/08/18 07:41:07;;;;;;;33.30;23.95;;;;;;;20.49;84.61;101287.34;5067750;28;20040;-69
2022/08/18 07:43:41;;;;;;;31.10;23.30;;;;;;;20.61;83.07;101288.75;5069064;28;20116;-68
2022/08/18 07:46:31;;;;;;;30.80;23.42;;;;;;;20.69;83.03;101293.47;5074978;28;20036;-68
2022/08/18 07:48:59;;;;;;;30.00;22.67;;;;;;;20.70;82.52;101296.06;5055394;28;20071;-68
2022/08/18 07:51:50;;;;;;;29.45;21.95;;;;;;;20.74;82.14;101300.22;5068313;28;20085;-68
2022/08/18 07:54:24;;;;;;;26.75;20.90;;;;;;;20.85;81.88;101297.19;5061445;28;20074;-68
2022/08/18 07:57:05;;;;;;;28.95;22.73;;;;;;;21.04;82.44;101296.03;5066311;28;20048;-67
2022/08/18 07:59:40;;;;;;;29.55;20.27;;;;;;;21.11;80.60;101296.22;5061788;28;20036;-67
2022/08/18 08:02:14;;;;;;;24.80;19.75;;;;;;;21.20;79.77;101295.19;5067268;28;20499;-69
2022/08/18 08:05:03;;;;;;;23.38;17.83;;;;;;;21.31;80.40;101288.50;5066070;28;20066;-71
2022/08/18 08:07:34;;;;;;;26.98;19.75;;;;;;;21.41;79.06;101302.22;5070215;28;20102;-69
2022/08/18 08:10:03;;;;;;;27.02;18.48;;;;;;;21.45;79.20;101300.81;5065959;28;20044;-69
2022/08/18 08:12:35;;;;;;;25.40;19.52;;;;;;;21.53;78.47;101292.50;5083865;28;20471;-69
2022/08/18 08:15:16;;;;;;;25.02;18.80;;;;;;;21.69;79.50;101295.31;5087228;28;20051;-69
2022/08/18 08:18:03;;;;;;;27.30;19.60;;;;;;;21.95;78.00;101297.88;5070540;28;20148;-69
2022/08/18 08:20:38;;;;;;;24.02;18.65;;;;;;;22.44;78.77;101292.28;5079175;28;20086;-70
2022/08/18 08:23:23;;;;;;;23.30;17.50;;;;;;;22.95;75.62;101292.81;5061204;28;20170;-70
2022/08/18 08:25:59;;;;;;;21.80;17.80;;;;;;;23.29;75.10;101297.97;5067349;28;20059;-69
2022/08/18 08:28:53;;;;;;;23.10;18.65;;;;;;;23.44;75.11;101300.81;5065654;28;20041;-70
2022/08/18 08:31:28;;;;;;;21.13;15.73;;;;;;;23.52;71.90;101305.47;5065177;28;20048;-70
2022/08/18 08:34:23;;;;;;;20.25;16.13;;;;;;;23.46;73.49;101314.56;5065708;28;20666;-68
2022/08/18 08:36:59;;;;;;;22.58;16.65;;;;;;;23.37;73.20;101310.97;5066090;28;20036;-69
2022/08/18 08:39:54;;;;;;;21.75;17.25;;;;;;;23.34;74.19;101311.31;5063567;28;20036;-69
2022/08/18 08:42:33;;;;;;;19.70;16.73;;;;;;;23.29;73.79;101311.88;5065741;28;20364;-69
2022/08/18 08:45:08;;;;;;;23.30;17.85;;;;;;;23.52;74.28;101317.44;5064760;28;20475;-69
2022/08/18 08:47:56;;;;;;;18.70;16.42;;;;;;;23.96;72.87;101310.34;5063957;28;20041;-69
2022/08/18 08:50:27;;;;;;;19.10;16.52;;;;;;;24.41;69.76;101304.72;5064440;28;20044;-69
2022/08/18 08:52:57;;;;;;;19.88;16.98;;;;;;;24.54;69.13;101311.53;5061724;28;20039;-69
2022/08/18 08:55:27;;;;;;;20.98;16.90;;;;;;;24.37;68.11;101325.63;5066017;28;20518;-69
2022/08/18 08:58:04;;;;;;;19.77;16.33;;;;;;;24.11;68.27;101317.69;5057527;28;20063;-69
2022/08/18 09:00:30;;;;;;;16.52;14.35;;;;;;;24.14;69.24;101317.28;5045096;28;20037;-69
2022/08/18 09:03:30;;;;;;;18.25;15.43;;;;;;;24.06;71.10;101316.50;5043264;28;20094;-69
2022/08/18 09:05:58;;;;;;;17.75;14.02;;;;;;;23.94;70.23;101318.88;5062922;28;20520;-69
2022/08/18 09:08:42;;;;;;;16.27;13.55;;;;;;;23.81;70.33;101313.09;5061614;28;20125;-69
2022/08/18 09:11:31;;;;;;;16.40;12.15;;;;;;;23.75;70.51;101311.06;5066315;28;20037;-69
2022/08/18 09:14:28;;;;;;;15.18;13.25;;;;;;;23.64;71.65;101306.78;5064349;28;20044;-69
2022/08/18 09:17:26;;;;;;;15.98;12.20;;;;;;;23.60;70.32;101317.41;5062326;28;20098;-70
2022/08/18 09:20:07;;;;;;;12.25;10.75;;;;;;;23.91;68.39;101324.81;5069561;28;20482;-69
2022/08/18 09:22:44;;;;;;;15.55;11.63;;;;;;;23.86;66.51;101319.81;5070151;28;20657;-69
2022/08/18 09:25:38;;;;;;;11.95;10.60;;;;;;;23.71;68.43;101315.25;5065595;28;20522;-70
2022/08/18 09:28:17;;;;;;;11.00;9.93;;;;;;;23.39;69.00;101322.75;5057325;28;20046;-70
2022/08/18 09:30:45;;;;;;;11.43;10.32;;;;;;;23.41;70.54;101320.66;5076270;28;20124;-70
2022/08/18 09:33:30;;;;;;;10.70;9.55;;;;;;;23.33;68.04;101317.94;5063873;28;20034;-69
2022/08/18 09:36:20;;;;;;;11.40;9.60;;;;;;;23.30;68.16;101316.38;5063256;28;20117;-69
2022/08/18 09:42:06;;;;;;;14.10;10.20;;;;;;;23.50;68.81;101308.44;5065346;28;20047;-71
2022/08/18 09:44:47;;;;;;;11.90;9.32;;;;;;;23.83;67.50;101306.31;5065494;28;20567;-70
2022/08/18 09:47:23;;;;;;;9.73;7.97;;;;;;;24.04;66.86;101304.72;5064019;28;20214;-69
2022/08/18 09:49:56;;;;;;;11.85;8.73;;;;;;;23.94;65.87;101305.00;5064139;28;20049;-70
2022/08/18 09:52:21;;;;;;;11.23;8.07;;;;;;;23.95;65.39;101309.50;5069265;28;20044;-70
2022/08/18 09:54:51;;;;;;;10.60;8.70;;;;;;;24.56;67.10;101301.06;5064505;28;20436;-70
2022/08/18 09:57:26;;;;;;;10.85;7.88;;;;;;;25.12;67.24;101305.06;5065531;28;20043;-69
2022/08/18 09:59:56;;;;;;;10.13;8.95;;;;;;;25.30;64.23;101301.00;5063876;28;20559;-70
2022/08/18 10:02:27;;;;;;;9.45;8.32;;;;;;;25.42;64.93;101305.00;5064885;28;20131;-70
2022/08/18 10:05:14;;;;;;;11.63;9.70;;;;;;;25.58;63.52;101303.88;5064188;28;20132;-70
2022/08/18 10:07:52;;;;;;;12.57;11.38;;;;;;;25.10;60.25;101306.34;5060357;28;20056;-72
2022/08/18 10:10:26;;;;;;;13.93;9.77;;;;;;;25.09;61.58;101288.78;5045189;28;20512;-70
2022/08/18 10:13:09;;;;;;;14.48;10.18;;;;;;;25.33;63.83;101289.47;5045179;28;20107;-71
2022/08/18 10:15:53;;;;;;;10.15;9.00;;;;;;;25.61;62.87;101295.13;5044559;28;20554;-70
2022/08/18 10:18:40;;;;;;;10.20;9.15;;;;;;;25.76;61.46;101297.88;5060805;28;20076;-70
2022/08/18 10:21:20;;;;;;;13.55;10.27;;;;;;;25.08;59.27;101292.59;5063202;28;20241;-70
2022/08/18 10:23:55;;;;;;;11.02;9.82;;;;;;;25.07;61.68;101293.66;5059504;28;20067;-70
2022/08/18 10:26:29;;;;;;;12.38;8.23;;;;;;;25.32;62.65;101299.75;5065332;28;20098;-70
2022/08/18 10:28:58;;;;;;;12.20;9.18;;;;;;;25.27;59.22;101295.81;5043291;28;20082;-70
2022/08/18 10:31:26;;;;;;;12.70;8.85;;;;;;;25.24;59.87;101297.09;5078971;28;20028;-70
2022/08/18 10:34:09;;;;;;;10.75;8.32;;;;;;;25.29;61.30;101289.00;5083216;28;20503;-70
2022/08/18 10:36:54;;;;;;;11.30;8.65;;;;;;;25.30;58.51;101284.28;5048455;28;20033;-70
2022/08/18 10:39:23;;;;;;;9.30;8.40;;;;;;;25.31;58.20;101277.66;5063715;28;20044;-70
2022/08/18 10:41:57;;;;;;;10.38;9.30;;;;;;;25.61;58.53;101281.19;5068833;28;20125;-70
2022/08/18 10:44:23;;;;;;;11.05;8.43;;;;;;;25.57;56.22;101283.50;5068747;28;20514;-70
2022/08/18 10:46:50;;;;;;;10.60;9.48;;;;;;;25.45;56.06;101283.16;5067488;28;20067;-71
2022/08/18 10:49:25;;;;;;;10.75;9.55;;;;;;;25.34;59.11;101289.25;5066024;28;20054;-69
2022/08/18 10:52:14;;;;;;;11.77;9.50;;;;;;;25.24;60.76;101296.22;5067664;28;20037;-71
2022/08/18 10:54:58;;;;;;;12.20;9.82;;;;;;;24.99;60.97;101290.94;5066094;28;20041;-70
2022/08/18 10:57:56;;;;;;;12.07;9.70;;;;;;;25.13;61.85;101289.22;5067350;28;20503;-70
2022/08/18 11:00:38;;;;;;;11.38;9.68;;;;;;;25.16;59.92;101295.28;5052437;28;20052;-70
2022/08/18 11:03:17;;;;;;;10.88;9.55;;;;;;;25.21;61.13;101297.47;5046881;28;20044;-70
2022/08/18 11:05:43;;;;;;;10.60;9.07;;;;;;;25.19;59.64;101296.81;5063164;28;20101;-70
2022/08/18 11:08:16;;;;;;;10.23;9.10;;;;;;;25.20;61.48;101298.53;5064989;28;20020;-70
2022/08/18 11:10:50;;;;;;;9.32;8.52;;;;;;;25.21;61.20;101288.25;5054341;28;20044;-70
2022/08/18 11:13:34;;;;;;;9.32;8.32;;;;;;;25.28;62.01;101289.22;5067226;28;20555;-71
2022/08/18 11:16:11;;;;;;;10.98;9.88;;;;;;;25.29;61.14;101283.44;5066226;28;20075;-70
2022/08/18 11:18:44;;;;;;;11.68;9.57;;;;;;;25.39;61.19;101275.59;5068142;28;20037;-70
2022/08/18 11:21:39;;;;;;;11.00;9.90;;;;;;;25.36;60.04;101286.28;5066915;28;20036;-71
2022/08/18 11:24:34;;;;;;;14.25;10.32;;;;;;;25.27;61.19;101270.75;5064490;28;20047;-70
2022/08/18 11:27:17;;;;;;;10.98;9.82;;;;;;;25.25;61.32;101267.31;5061937;28;21009;-69
2022/08/18 11:29:44;;;;;;;10.75;9.70;;;;;;;25.16;59.86;101255.41;5064085;28;20043;-70
2022/08/18 11:32:31;;;;;;;11.77;9.88;;;;;;;25.13;60.30;101265.06;5056071;28;20094;-71
2022/08/18 11:34:56;;;;;;;10.93;9.80;;;;;;;25.03;58.09;101260.81;5056313;28;20067;-70
2022/08/18 11:37:33;;;;;;;10.43;9.32;;;;;;;25.05;59.28;101262.34;5064288;28;20679;-69
2022/08/18 11:40:01;;;;;;;12.93;9.38;;;;;;;25.12;59.47;101263.31;5064903;28;20116;-70
2022/08/18 11:42:40;;;;;;;10.20;9.25;;;;;;;25.20;61.76;101253.97;5067808;28;20027;-70
2022/08/18 11:45:11;;;;;;;11.45;9.75;;;;;;;25.41;61.10;101250.31;5068055;28;20399;-70
2022/08/18 11:47:37;;;;;;;12.95;10.95;;;;;;;25.47;58.70;101245.91;5066955;28;20506;-70
2022/08/18 11:50:11;;;;;;;11.55;10.35;;;;;;;25.58;59.66;101240.66;5066857;28;20119;-70
2022/08/18 11:52:49;;;;;;;12.02;10.00;;;;;;;26.03;57.39;101235.69;5065177;28;20486;-70
2022/08/18 11:55:32;;;;;;;11.25;10.25;;;;;;;26.35;57.73;101241.72;5067280;28;20111;-70